Fairbanks, AK

2:12 PM AKDT on August 30, 2016 (GMT -0800)
200 Slater Dr. | | Change Station

Elev 450 ft 64.84 °N, 147.70 °W | Updated 8 seconds ago

Clear
Clear
69.8 °F
Feels Like 69.8 °F
N
2.0
Wind Variable Wind from East
Gusts 4.0 mph

Today
High -- | Low -- °F
--% Chance of Precip.
Yesterday
High -- | Low -- °F
Precip. -- in
Pressure 30.27 in
Visibility 9.0 miles
Clouds Clear
Dew Point 37 °F
Humidity 30%
Rainfall 0.00 in
Snow Depth Not available.
6:26 AM 9:13 PM
Waning Crescent, 2% visible
METAR PAFB 302158Z 09009KT 9SM CLR 19/00 A3026 RMK AO2A SLP250 T01870003
Pressure 30.27 in
Visibility 9.0 miles
Clouds Clear
Dew Point 37 °F
Humidity 30%
Rainfall 0.00 in
Snow Depth Not available.
6:26 AM 9:13 PM
Waning Crescent, 2% visible
METAR PAFB 302158Z 09009KT 9SM CLR 19/00 A3026 RMK AO2A SLP250 T01870003

10-Day Weather Forecast

Almanac

Astronomy

Aug. 30, 2016 Rise Set
Actual Time
Civil Twilight
Nautical Twilight
Astronomical Twilight
Moon
Length of Visible Light
Length of Day
Tomorrow will be .
, % of the Moon is Illuminated

Today's Extremes

State Highs State Lows

Community

WunderPhotos

Upload Photos

1,935,911 photos uploaded!

WunderBlog® & News

Nearby

Air Quality

  Air Quality AQ Index Pollutant
Not available.

Snow Depth

Station Depth Elevation

Earthquake Activity

City Distance Mag. Time & Date
Minimum magnitude displayed is 2.5.

Coastal Water Temperatures

Place Temperature

Stations

Nearby Weather Stations

Station Location Temp. Windchill Dew Point Humidity Wind Precip. Elev Updated Type
                   

Watches & Warnings

There are currently no watches in effect.